Spring Grove, Virginia
Current Conditions -  °F | °C
As of 11:54 PM on Wednesday 26 Nov 2014 (Local Time) from KAKQ Reporting Station
Broken Clouds Broken Clouds  
Wind Chill: 38°   Ceiling: 4100
Heat Index: 38°   Visibility: 8mi
Dew Point: 36°   Wind: 0mph
Humidity: 93%   Direction: NA
Pressure: 30.05"   Gusts: NA
Location:  37.17°N, 76.97°W
Report Text: KAKQ 270454Z AUTO 00000KT 8SM BKN041 BKN075 03/02 A3005 RMK AO2 SLP176 T00330022 401000033 TSNO
Loading
Personal Weather Stations






























Interactive Weather Map New forecast layout! Learn more

10-Day Weather Forecast

Advertisements
Track Severe Weather on mobile